Time;durP1;ratioP1;P1;durP2;ratioP2;P2;SDS_P1;SDS_P2;PMS_P1;PMS_P2;Temp;Humidity;BMP_temperature;BMP_pressure;BME280_temperature;BME280_humidity;BME280_pressure;Samples;Min_cycle;Max_cycle;Signal;HPM_P1;HPM_P2
2021/06/25 00:00:12;;;;;;;39.67;23.55;;;;;;;24.76;60.71;99726.59;5054425;28;20103;-91
2021/06/25 00:02:40;;;;;;;40.42;22.15;;;;;;;24.98;60.87;99756.16;5037581;28;20040;-92
2021/06/25 00:05:08;;;;;;;37.33;20.90;;;;;;;24.99;60.55;99768.16;5056906;28;20040;-91
2021/06/25 00:07:37;;;;;;;39.15;21.48;;;;;;;25.14;60.86;99774.59;5056319;28;20644;-91
2021/06/25 00:10:07;;;;;;;34.50;20.98;;;;;;;25.17;60.67;99791.38;5074319;28;20044;-91
2021/06/25 00:12:34;;;;;;;36.50;22.83;;;;;;;25.07;60.42;99764.97;5030741;28;20543;-91
2021/06/25 00:15:01;;;;;;;36.28;22.45;;;;;;;25.12;60.35;99760.97;5037466;28;20161;-90
2021/06/25 00:17:27;;;;;;;44.17;22.80;;;;;;;25.22;60.21;99774.16;5021456;28;20033;-91
2021/06/25 00:19:53;;;;;;;29.17;20.73;;;;;;;25.03;59.88;99741.78;5055170;28;20095;-91
2021/06/25 00:22:19;;;;;;;33.58;20.90;;;;;;;25.15;60.12;99754.59;5037405;28;20040;-90
2021/06/25 00:24:45;;;;;;;38.42;20.92;;;;;;;25.14;60.19;99758.59;5033618;28;20056;-91
2021/06/25 00:27:12;;;;;;;27.42;19.50;;;;;;;25.18;59.74;99759.38;5034175;28;20052;-90
2021/06/25 00:29:38;;;;;;;29.85;20.55;;;;;;;25.12;60.38;99744.19;5033966;28;20053;-92
2021/06/25 00:32:07;;;;;;;34.65;20.65;;;;;;;25.15;60.75;99759.38;5033938;28;20033;-90
2021/06/25 00:34:34;;;;;;;35.17;20.67;;;;;;;25.01;61.14;99738.59;5026843;28;20045;-91
2021/06/25 00:37:00;;;;;;;32.50;20.77;;;;;;;24.91;61.53;99735.78;5020632;28;20040;-92
2021/06/25 00:39:26;;;;;;;36.45;21.35;;;;;;;24.94;61.91;99765.75;5053293;28;20107;-91
2021/06/25 00:41:52;;;;;;;36.95;20.23;;;;;;;24.84;62.69;99768.16;5053151;28;20494;-90
2021/06/25 00:44:21;;;;;;;32.25;18.80;;;;;;;24.77;62.14;99753.38;5037178;28;20110;-90
2021/06/25 00:46:48;;;;;;;31.70;19.50;;;;;;;24.65;62.19;99725.81;5036911;28;20045;-90
2021/06/25 00:49:14;;;;;;;38.67;19.02;;;;;;;24.68;62.03;99728.59;5020261;28;20044;-91
2021/06/25 00:51:43;;;;;;;32.90;19.08;;;;;;;24.77;62.25;99745.00;5037133;28;20041;-91
2021/06/25 00:54:11;;;;;;;34.90;19.58;;;;;;;24.63;62.06;99728.97;5016673;28;20046;-92
2021/06/25 00:56:37;;;;;;;35.50;19.98;;;;;;;24.70;62.45;99739.38;5017012;28;20045;-91
2021/06/25 00:59:06;;;;;;;29.13;19.17;;;;;;;24.54;62.71;99704.22;5061569;28;20036;-91
2021/06/25 01:01:32;;;;;;;;;;;;;;;24.65;62.89;99711.81;5053748;28;20041;-90
2021/06/25 01:03:58;;;;;;;33.28;20.58;;;;;;;24.39;63.29;99683.00;5036558;28;19974;-91
2021/06/25 01:06:25;;;;;;;33.95;22.15;;;;;;;24.33;63.83;99701.38;5053194;28;20040;-90
2021/06/25 01:08:51;;;;;;;44.58;22.27;;;;;;;24.42;64.18;99728.97;5052835;28;20040;-93
2021/06/25 01:11:18;;;;;;;39.20;21.50;;;;;;;24.25;64.02;99694.19;5020168;28;20036;-91
2021/06/25 01:13:45;;;;;;;36.20;21.45;;;;;;;24.41;63.64;99719.78;5020004;28;20048;-91
2021/06/25 01:16:14;;;;;;;30.70;19.70;;;;;;;24.34;63.16;99717.75;5052699;28;20421;-92
2021/06/25 01:18:41;;;;;;;31.75;18.98;;;;;;;24.45;63.32;99731.75;5036444;28;20045;-91
2021/06/25 01:21:07;;;;;;;40.50;19.33;;;;;;;24.53;62.79;99738.94;5053272;28;20068;-92
2021/06/25 01:23:42;;;;;;;40.10;19.88;;;;;;;24.48;63.00;99711.41;5052813;28;20131;-91
2021/06/25 01:26:10;;;;;;;43.85;19.70;;;;;;;24.29;62.76;99667.84;5032419;28;20067;-90
2021/06/25 01:28:38;;;;;;;33.75;19.80;;;;;;;24.76;62.42;99726.59;5015576;28;20156;-91
2021/06/25 01:31:06;;;;;;;39.75;17.75;;;;;;;24.64;61.89;99697.06;5033824;28;20460;-90
2021/06/25 01:33:33;;;;;;;35.63;17.40;;;;;;;24.83;61.12;99710.63;5019448;28;20494;-91
2021/06/25 01:36:00;;;;;;;31.52;16.27;;;;;;;24.81;60.40;99678.66;5019183;28;20461;-90
2021/06/25 01:38:26;;;;;;;31.58;15.93;;;;;;;24.96;60.54;99691.41;5035600;28;20088;-92
2021/06/25 01:40:54;;;;;;;27.05;15.68;;;;;;;25.05;59.55;99689.03;5035853;28;20123;-91
2021/06/25 01:43:24;;;;;;;30.67;16.83;;;;;;;25.09;59.88;99694.59;5036208;28;20079;-91
2021/06/25 01:45:52;;;;;;;24.25;15.82;;;;;;;25.13;59.47;99700.22;5035935;28;20037;-92
2021/06/25 01:48:18;;;;;;;22.08;15.48;;;;;;;25.20;59.64;99703.00;5019590;28;20068;-91
2021/06/25 01:50:45;;;;;;;27.88;15.93;;;;;;;25.10;59.69;99696.22;5036165;28;20104;-92
2021/06/25 01:53:16;;;;;;;24.13;16.17;;;;;;;25.13;59.94;99695.41;5036108;28;20106;-91
2021/06/25 01:55:44;;;;;;;25.02;15.60;;;;;;;25.27;59.53;99706.59;5035794;28;20128;-91
2021/06/25 01:58:20;;;;;;;31.80;14.90;;;;;;;25.47;58.68;99725.75;5035465;28;20044;-91
2021/06/25 02:01:05;;;;;;;30.85;14.63;;;;;;;25.64;59.04;99741.69;5035712;28;20138;-92
2021/06/25 02:03:33;;;;;;;25.83;14.13;;;;;;;25.61;59.34;99734.09;5019422;28;20039;-92
2021/06/25 02:05:59;;;;;;;20.33;13.50;;;;;;;25.47;58.26;99704.16;5052216;28;20041;-92
2021/06/25 02:08:26;;;;;;;26.67;13.45;;;;;;;25.82;57.29;99744.44;5035810;28;20502;-91
2021/06/25 02:10:52;;;;;;;22.90;13.15;;;;;;;25.77;56.74;99714.84;5051939;28;20040;-91
2021/06/25 02:13:19;;;;;;;34.85;12.40;;;;;;;25.85;57.09;99715.63;5035406;28;20068;-91
2021/06/25 02:15:45;;;;;;;26.42;12.70;;;;;;;25.87;56.58;99709.63;5018824;28;20091;-91
2021/06/25 02:18:12;;;;;;;25.83;12.65;;;;;;;25.97;56.11;99722.78;5051865;28;20044;-91
2021/06/25 02:20:38;;;;;;;23.80;12.98;;;;;;;26.16;56.08;99733.50;5034754;28;20041;-91
2021/06/25 02:23:05;;;;;;;30.45;12.75;;;;;;;26.17;55.48;99731.50;5035281;28;20060;-91
2021/06/25 02:25:32;;;;;;;21.15;11.98;;;;;;;26.25;54.11;99730.22;5035114;28;20041;-91
2021/06/25 02:27:58;;;;;;;18.92;12.93;;;;;;;26.21;54.28;99705.03;5035051;28;20106;-89
2021/06/25 02:30:24;;;;;;;60.95;15.10;;;;;;;26.44;54.22;99735.31;5051300;28;20049;-90
2021/06/25 02:32:50;;;;;;;26.83;13.27;;;;;;;26.46;53.97;99744.13;5034272;28;20187;-89
2021/06/25 02:35:16;;;;;;;24.42;13.55;;;;;;;26.33;53.27;99717.78;5051220;28;20120;-90
2021/06/25 02:37:43;;;;;;;21.83;12.13;;;;;;;26.55;53.45;99740.88;5051004;28;20033;-88
2021/06/25 02:40:11;;;;;;;59.83;14.90;;;;;;;26.65;53.52;99744.81;5050770;28;20593;-90
2021/06/25 02:42:43;;;;;;;27.23;12.60;;;;;;;26.58;53.45;99731.66;5052451;28;20068;-88
2021/06/25 02:45:12;;;;;;;24.38;11.90;;;;;;;26.62;53.64;99729.63;5052035;28;20037;-88
2021/06/25 02:47:38;;;;;;;43.75;13.48;;;;;;;26.58;53.97;99719.63;5034128;28;20037;-92
2021/06/25 02:50:08;;;;;;;64.38;13.57;;;;;;;26.47;53.44;99703.69;5034291;28;20047;-88
2021/06/25 02:52:35;;;;;;;28.27;12.45;;;;;;;26.69;53.52;99728.78;5017654;28;20498;-88
2021/06/25 02:55:02;;;;;;;26.77;12.05;;;;;;;26.69;53.56;99748.41;5051881;28;20434;-89
2021/06/25 02:57:28;;;;;;;;;;;;;;;26.71;53.40;99741.16;5051196;28;20037;-92
2021/06/25 02:59:56;;;;;;;26.05;13.48;;;;;;;26.50;53.92;99695.69;5050849;28;20023;-89
2021/06/25 03:02:22;;;;;;;29.80;12.63;;;;;;;26.72;54.11;99727.94;5034134;28;20060;-90
2021/06/25 03:04:49;;;;;;;23.77;13.52;;;;;;;26.68;54.17;99724.38;5050963;28;20045;-92
2021/06/25 03:07:15;;;;;;;27.65;13.50;;;;;;;26.72;55.20;99733.53;5050757;28;20124;-91
2021/06/25 03:09:41;;;;;;;46.20;15.30;;;;;;;26.57;55.66;99707.63;5050862;28;20120;-92
2021/06/25 03:12:08;;;;;;;34.13;16.38;;;;;;;26.53;55.82;99704.06;5050825;28;20494;-89
2021/06/25 03:14:36;;;;;;;32.75;15.15;;;;;;;26.58;55.47;99714.03;5050802;28;20052;-89
2021/06/25 03:17:05;;;;;;;29.67;17.08;;;;;;;26.57;55.88;99718.84;5050879;28;20102;-89
2021/06/25 03:19:30;;;;;;;;;;;;;;;26.76;55.96;99730.75;5051289;28;20083;-89
2021/06/25 03:24:26;;;;;;;29.48;17.58;;;;;;;26.59;52.66;99693.19;5052369;28;20417;-93
2021/06/25 03:26:54;;;;;;;71.45;18.55;;;;;;;26.79;52.16;99721.47;5034053;28;20106;-89
2021/06/25 03:29:20;;;;;;;76.72;17.40;;;;;;;26.84;51.78;99715.44;5033782;28;20052;-88
2021/06/25 03:31:49;;;;;;;37.13;14.10;;;;;;;26.69;50.87;99687.50;5050882;28;20040;-87
2021/06/25 03:34:15;;;;;;;60.88;13.60;;;;;;;26.80;51.69;99695.03;5065155;28;20041;-89
2021/06/25 03:36:43;;;;;;;47.53;12.15;;;;;;;26.89;50.65;99698.97;5074790;28;20033;-88
2021/06/25 03:39:12;;;;;;;28.83;11.77;;;;;;;26.84;50.71;99696.59;5057632;28;20052;-90
2021/06/25 03:41:38;;;;;;;26.38;11.05;;;;;;;26.80;50.52;99689.44;5058124;28;20045;-88
2021/06/25 03:44:04;;;;;;;23.40;11.18;;;;;;;26.86;50.50;99699.78;5074423;28;20127;-90
2021/06/25 03:46:30;;;;;;;25.63;12.27;;;;;;;27.05;51.38;99722.84;5057781;28;20524;-90
2021/06/25 03:48:56;;;;;;;48.03;12.48;;;;;;;26.92;51.76;99692.53;5042396;28;20044;-91
2021/06/25 03:51:22;;;;;;;58.72;14.93;;;;;;;27.16;51.98;99713.16;5055517;28;20094;-90
2021/06/25 03:53:49;;;;;;;58.22;15.05;;;;;;;27.12;52.29;99692.72;5037617;28;20044;-90
2021/06/25 03:56:15;;;;;;;31.42;12.57;;;;;;;27.28;50.73;99700.59;5037402;28;20041;-91
2021/06/25 03:58:44;;;;;;;35.13;12.93;;;;;;;27.28;51.34;99688.56;5055432;28;20048;-91
2021/06/25 04:01:10;;;;;;;44.63;13.40;;;;;;;27.30;50.92;99692.56;5053567;28;20494;-89
2021/06/25 04:03:38;;;;;;;43.20;14.30;;;;;;;27.47;51.34;99715.25;5053947;28;20044;-89
2021/06/25 04:06:05;;;;;;;34.83;13.70;;;;;;;27.38;50.34;99705.31;5054240;28;20068;-90
2021/06/25 04:08:32;;;;;;;26.50;12.00;;;;;;;27.35;50.20;99699.72;5037208;28;20048;-91
2021/06/25 04:11:00;;;;;;;24.02;11.35;;;;;;;27.37;49.82;99709.31;5037221;28;20049;-89
2021/06/25 04:13:27;;;;;;;34.08;13.00;;;;;;;27.42;49.62;99696.84;5037412;28;20037;-91
2021/06/25 04:15:55;;;;;;;29.13;12.25;;;;;;;27.48;50.38;99691.56;5053631;28;20555;-90
2021/06/25 04:18:21;;;;;;;31.13;11.45;;;;;;;27.70;50.84;99714.56;5020646;28;20072;-91
2021/06/25 04:20:48;;;;;;;35.80;11.10;;;;;;;27.63;49.29;99695.81;5053762;28;20052;-91
2021/06/25 04:23:16;;;;;;;24.35;12.32;;;;;;;27.75;49.30;99708.47;5036898;28;20037;-90
2021/06/25 04:25:43;;;;;;;32.85;12.13;;;;;;;27.84;48.77;99718.03;5036811;28;20044;-89
2021/06/25 04:28:09;;;;;;;44.90;12.93;;;;;;;27.74;48.77;99687.22;5053336;28;20521;-90
2021/06/25 04:30:38;;;;;;;28.70;13.52;;;;;;;27.86;48.47;99709.97;5053461;28;20041;-91
2021/06/25 04:33:04;;;;;;;37.50;13.32;;;;;;;27.90;49.58;99704.31;5053007;28;20044;-92
2021/06/25 04:35:31;;;;;;;37.20;12.95;;;;;;;27.99;49.65;99707.41;5053288;28;20041;-90
2021/06/25 04:38:01;;;;;;;;;;;;;;;28.15;48.41;99717.25;5036774;28;20033;-90
2021/06/25 04:40:29;;;;;;;31.50;12.38;;;;;;;28.08;48.72;99710.50;5053006;28;20378;-90
2021/06/25 04:42:55;;;;;;;45.22;13.50;;;;;;;28.18;49.02;99713.56;5033145;28;20052;-91
2021/06/25 04:45:21;;;;;;;44.17;12.85;;;;;;;28.28;48.40;99721.88;5032427;28;20037;-89
2021/06/25 04:47:47;;;;;;;28.92;11.90;;;;;;;28.16;48.23;99694.31;5048316;28;20033;-89
2021/06/25 04:50:13;;;;;;;28.90;13.07;;;;;;;28.09;48.71;99683.19;5052402;28;21290;-89
2021/06/25 04:52:40;;;;;;;35.75;13.55;;;;;;;28.38;48.42;99711.69;5053430;28;20041;-90
2021/06/25 04:55:06;;;;;;;;;;;;;;;28.45;47.80;99719.25;5036870;28;20049;-90
2021/06/25 04:57:34;;;;;;;27.17;12.43;;;;;;;28.42;48.39;99704.00;5053521;28;19921;-90
2021/06/25 05:00:00;;;;;;;23.02;12.35;;;;;;;28.54;48.77;99722.28;5052944;28;20072;-90
2021/06/25 05:02:26;;;;;;;38.67;13.05;;;;;;;28.55;48.64;99712.66;5052847;28;20533;-90
2021/06/25 05:04:52;;;;;;;42.03;12.55;;;;;;;28.59;49.33;99704.16;5052738;28;20069;-90
2021/06/25 05:07:20;;;;;;;34.13;12.43;;;;;;;28.68;49.22;99702.41;5052348;28;20037;-89
2021/06/25 05:09:46;;;;;;;41.17;13.10;;;;;;;28.75;49.59;99696.66;5036202;28;20041;-90
2021/06/25 05:12:12;;;;;;;24.73;11.68;;;;;;;28.89;47.81;99706.06;5053784;28;20498;-91
2021/06/25 05:14:38;;;;;;;30.75;11.52;;;;;;;28.89;49.45;99708.88;5036304;28;20049;-90
2021/06/25 05:17:04;;;;;;;22.50;12.68;;;;;;;28.97;48.86;99711.16;5053549;28;20044;-90
2021/06/25 05:19:30;;;;;;;25.13;12.20;;;;;;;29.06;50.25;99712.63;5035622;28;20094;-90
2021/06/25 05:21:56;;;;;;;27.52;12.07;;;;;;;28.93;49.65;99675.84;5052138;28;20388;-91
2021/06/25 05:24:23;;;;;;;23.85;12.88;;;;;;;28.97;49.66;99682.19;5052529;28;20067;-91
2021/06/25 05:26:49;;;;;;;22.33;12.95;;;;;;;29.05;49.25;99674.47;5051910;28;20029;-90
2021/06/25 05:29:15;;;;;;;26.20;13.65;;;;;;;29.08;49.13;99676.41;5035053;28;20426;-91
2021/06/25 05:31:42;;;;;;;25.00;12.52;;;;;;;29.22;49.28;99693.03;5057577;28;20036;-90
2021/06/25 05:34:08;;;;;;;24.63;12.23;;;;;;;29.25;49.88;99692.19;5018794;28;20040;-90
2021/06/25 05:36:35;;;;;;;18.27;11.73;;;;;;;29.30;48.17;99691.66;5048199;28;20042;-91
2021/06/25 05:39:00;;;;;;;;;;;;;;;29.51;48.17;99713.00;5045576;28;20055;-90
2021/06/25 05:41:26;;;;;;;25.83;11.20;;;;;;;29.24;47.65;99671.69;5051734;28;19921;-90
2021/06/25 05:43:52;;;;;;;22.58;10.65;;;;;;;29.49;48.02;99695.72;5052606;28;20029;-90
2021/06/25 05:46:20;;;;;;;22.50;10.25;;;;;;;29.51;46.48;99696.09;5055650;28;20072;-91
2021/06/25 05:48:46;;;;;;;26.88;10.68;;;;;;;29.55;47.57;99687.56;5024207;28;20041;-89
2021/06/25 05:51:12;;;;;;;17.30;9.88;;;;;;;29.60;46.61;99689.91;5066724;28;20051;-90
2021/06/25 05:53:39;;;;;;;20.40;11.85;;;;;;;29.79;47.75;99719.31;5052973;28;20041;-90
2021/06/25 05:56:07;;;;;;;23.70;11.10;;;;;;;29.79;48.05;99708.03;5050742;28;20180;-90
2021/06/25 05:58:33;;;;;;;21.60;10.88;;;;;;;29.78;48.33;99695.19;5015369;28;20410;-91
2021/06/25 06:01:00;;;;;;;24.45;12.10;;;;;;;29.78;47.66;99698.00;5015969;28;20100;-91
2021/06/25 06:03:26;;;;;;;32.42;12.23;;;;;;;29.87;48.48;99712.31;5015402;28;20049;-92
2021/06/25 06:05:52;;;;;;;24.05;12.45;;;;;;;29.94;47.87;99723.41;5033051;28;20038;-91
2021/06/25 06:08:18;;;;;;;30.77;12.27;;;;;;;29.88;48.62;99700.59;5029785;28;20036;-92
2021/06/25 06:10:45;;;;;;;27.45;12.05;;;;;;;29.87;47.52;99710.28;5035168;28;20045;-91
2021/06/25 06:13:11;;;;;;;21.95;12.80;;;;;;;30.03;47.30;99720.00;5052011;28;20029;-89
2021/06/25 06:15:38;;;;;;;25.88;13.57;;;;;;;30.09;47.86;99735.19;5030302;28;20044;-90
2021/06/25 06:18:05;;;;;;;26.85;13.18;;;;;;;30.11;49.16;99730.69;5046896;28;20065;-91
2021/06/25 06:20:31;;;;;;;27.45;13.32;;;;;;;30.10;48.04;99726.28;5050430;28;20041;-89
2021/06/25 06:31:22;;;;;;;26.05;13.27;;;;;;;30.32;47.40;99735.09;5034413;28;20036;-91
2021/06/25 06:33:55;;;;;;;18.08;13.13;;;;;;;30.38;48.32;99733.34;5052287;28;20045;-91
2021/06/25 06:41:19;;;;;;;29.85;12.88;;;;;;;30.57;47.38;99753.47;5051948;28;20044;-90
2021/06/25 06:43:47;;;;;;;27.38;15.23;;;;;;;30.53;46.81;99733.81;5050627;28;20037;-93
2021/06/25 06:46:14;;;;;;;25.52;14.13;;;;;;;30.65;46.08;99746.41;5051867;28;20036;-90
2021/06/25 06:48:43;;;;;;;23.60;13.82;;;;;;;30.73;47.04;99747.84;5030730;28;20042;-90
2021/06/25 06:51:10;;;;;;;33.85;13.70;;;;;;;30.64;46.96;99730.72;5051164;28;20131;-91
2021/06/25 06:53:37;;;;;;;30.90;13.68;;;;;;;30.70;46.59;99726.16;5060636;28;20141;-90
2021/06/25 06:56:03;;;;;;;;;;;;;;;30.88;44.62;99753.94;5060601;28;20035;-92
2021/06/25 06:58:29;;;;;;;30.17;13.80;;;;;;;30.88;46.76;99751.91;5061772;28;20353;-91
2021/06/25 07:00:58;;;;;;;22.35;12.52;;;;;;;30.89;45.00;99747.88;5031144;28;20036;-92
2021/06/25 07:03:24;;;;;;;27.30;10.90;;;;;;;30.96;44.22;99746.91;5016708;28;20048;-91
2021/06/25 07:05:50;;;;;;;22.50;11.13;;;;;;;30.99;43.12;99757.28;5049425;28;20066;-90
2021/06/25 07:08:19;;;;;;;19.00;10.93;;;;;;;30.95;43.72;99748.13;5053227;28;20045;-90
2021/06/25 07:10:45;;;;;;;26.42;10.63;;;;;;;30.94;44.15;99729.59;5054122;28;20090;-91
2021/06/25 07:13:12;;;;;;;30.13;10.73;;;;;;;31.13;44.39;99745.66;5034536;28;20048;-90
2021/06/25 07:15:38;;;;;;;24.30;11.02;;;;;;;31.20;42.81;99744.66;5053631;28;20491;-90
2021/06/25 07:18:05;;;;;;;24.50;10.38;;;;;;;31.18;43.30;99733.00;5054296;28;20067;-91
2021/06/25 07:20:33;;;;;;;18.08;9.77;;;;;;;31.32;43.41;99752.41;5036521;28;20045;-91
2021/06/25 07:23:00;;;;;;;16.80;9.68;;;;;;;31.31;42.40;99724.59;5054745;28;20491;-89
2021/06/25 07:25:27;;;;;;;65.75;11.20;;;;;;;31.44;42.04;99739.59;5056339;28;20049;-89
2021/06/25 07:27:53;;;;;;;21.60;9.73;;;;;;;31.46;41.73;99733.53;5037566;28;20127;-92
2021/06/25 07:30:19;;;;;;;;;;;;;;;31.65;42.50;99749.50;5055809;28;20041;-91
2021/06/25 07:32:46;;;;;;;20.25;9.70;;;;;;;31.70;42.03;99739.72;5037417;28;19920;-89
2021/06/25 07:35:14;;;;;;;17.90;9.90;;;;;;;31.77;41.15;99745.16;5055385;28;20103;-90
2021/06/25 07:37:42;;;;;;;23.33;10.05;;;;;;;31.66;41.67;99710.75;5038054;28;20082;-90
2021/06/25 07:40:09;;;;;;;20.23;10.27;;;;;;;31.88;41.47;99734.34;5053838;28;20414;-90
2021/06/25 07:42:35;;;;;;;18.95;9.93;;;;;;;32.06;41.42;99736.66;5054099;28;20048;-92
2021/06/25 07:45:07;;;;;;;;;;;;;;;32.17;40.91;99733.50;5018096;28;20037;-91
2021/06/25 07:47:36;;;;;;;29.85;9.70;;;;;;;32.11;39.76;99709.84;5034120;28;20015;-89
2021/06/25 07:50:04;;;;;;;19.92;9.98;;;;;;;32.32;40.51;99729.00;5037301;28;20036;-91
2021/06/25 07:52:30;;;;;;;29.00;10.85;;;;;;;32.32;40.61;99706.38;5053842;28;20418;-91
2021/06/25 07:54:57;;;;;;;17.13;10.68;;;;;;;32.48;41.01;99711.94;5053912;28;20151;-91
2021/06/25 07:57:25;;;;;;;19.88;11.20;;;;;;;32.62;39.92;99722.00;5054241;28;20490;-90
2021/06/25 07:59:52;;;;;;;19.33;10.73;;;;;;;32.77;38.47;99721.53;5052895;28;20102;-91
2021/06/25 08:02:19;;;;;;;28.85;10.52;;;;;;;32.92;39.41;99716.97;5054136;28;20646;-94
2021/06/25 08:04:47;;;;;;;;;;;;;;;33.11;39.36;99724.41;5054004;28;20123;-90
2021/06/25 08:07:18;;;;;;;25.20;11.25;;;;;;;33.20;39.15;99701.03;5053754;28;19921;-92
2021/06/25 08:09:44;;;;;;;21.23;11.60;;;;;;;33.41;38.79;99697.44;5053663;28;20049;-90
2021/06/25 08:12:12;;;;;;;29.20;11.85;;;;;;;33.62;38.23;99712.13;5054655;28;20037;-88
2021/06/25 08:14:38;;;;;;;25.02;10.57;;;;;;;33.76;37.17;99710.78;5052033;28;20576;-89
2021/06/25 08:17:06;;;;;;;42.92;12.52;;;;;;;33.61;37.20;99736.84;5046956;28;20167;-88
2021/06/25 08:19:34;;;;;;;115.03;14.93;;;;;;;33.24;40.11;99730.03;5053233;28;20048;-87
2021/06/25 08:22:01;;;;;;;213.40;18.67;;;;;;;32.05;41.17;99721.72;5054223;28;20045;-88
2021/06/25 08:24:27;;;;;;;63.28;12.45;;;;;;;31.08;42.17;99717.13;5054017;28;20534;-90
2021/06/25 08:26:55;;;;;;;31.92;11.00;;;;;;;30.51;42.84;99715.72;5036593;28;20063;-86
2021/06/25 08:29:21;;;;;;;98.80;13.57;;;;;;;30.33;43.41;99752.78;5051286;28;20045;-88
2021/06/25 08:31:48;;;;;;;62.13;10.60;;;;;;;29.61;44.19;99714.06;5053229;28;20037;-87
2021/06/25 08:34:15;;;;;;;69.43;10.90;;;;;;;29.23;45.88;99742.47;5032437;28;20086;-87
2021/06/25 08:36:41;;;;;;;40.42;10.50;;;;;;;28.64;48.36;99757.09;5051089;28;20040;-89
2021/06/25 08:39:10;;;;;;;56.35;11.07;;;;;;;28.18;47.87;99755.72;5049004;28;20053;-89
2021/06/25 08:41:37;;;;;;;27.17;10.27;;;;;;;27.83;48.66;99732.50;5052352;28;20127;-89
2021/06/25 08:44:05;;;;;;;22.25;9.35;;;;;;;27.49;48.87;99732.47;5036481;28;20044;-93
2021/06/25 08:46:32;;;;;;;32.65;9.32;;;;;;;27.35;50.60;99728.63;5044994;28;20045;-89
2021/06/25 08:49:02;;;;;;;79.90;13.52;;;;;;;26.85;55.67;99740.25;5051818;28;20402;-90
2021/06/25 08:51:29;;;;;;;55.40;12.95;;;;;;;26.45;58.63;99764.16;5051980;28;20040;-75
2021/06/25 08:53:55;;;;;;;;;;;;;;;26.14;59.81;99769.53;5051978;28;20561;-75
2021/06/25 08:56:22;;;;;;;29.80;11.82;;;;;;;25.85;58.79;99771.66;5052879;28;19920;-75
2021/06/25 08:58:48;;;;;;;22.70;12.73;;;;;;;25.70;60.36;99784.09;5050819;28;20544;-74
2021/06/25 09:01:15;;;;;;;31.58;13.00;;;;;;;25.53;61.39;99780.94;5044583;28;20033;-75
2021/06/25 09:03:49;;;;;;;31.85;14.38;;;;;;;25.50;62.23;99778.13;5039299;28;20051;-75
2021/06/25 09:06:15;;;;;;;29.45;13.98;;;;;;;25.52;61.22;99768.09;5049967;28;20105;-75
2021/06/25 09:08:42;;;;;;;46.65;15.05;;;;;;;25.48;61.39;99772.91;5052564;28;20510;-75
2021/06/25 09:11:20;;;;;;;37.97;14.07;;;;;;;25.48;62.18;99775.72;5051840;28;20098;-75
2021/06/25 09:13:47;;;;;;;44.75;16.63;;;;;;;25.57;65.20;99799.72;5052052;28;20083;-74
2021/06/25 09:16:26;;;;;;;47.38;15.55;;;;;;;25.55;64.00;99783.31;5052227;28;20402;-73
2021/06/25 09:19:00;;;;;;;32.95;13.40;;;;;;;25.47;63.46;99781.75;5052524;28;20051;-81
2021/06/25 09:21:28;;;;;;;31.45;10.60;;;;;;;25.96;61.35;99777.19;5048297;28;20573;-72
2021/06/25 09:23:54;;;;;;;23.23;10.30;;;;;;;26.45;56.10;99770.56;5051587;28;20084;-72
2021/06/25 09:26:22;;;;;;;25.38;11.75;;;;;;;26.60;54.97;99768.50;5052027;28;20447;-72
2021/06/25 09:28:50;;;;;;;33.30;10.38;;;;;;;26.76;52.58;99765.19;5050528;28;20079;-72
2021/06/25 09:31:23;;;;;;;32.38;11.25;;;;;;;26.84;52.41;99765.91;5050064;28;20056;-72
2021/06/25 09:33:56;;;;;;;29.95;10.48;;;;;;;27.07;51.67;99766.13;5051703;28;20086;-72
2021/06/25 09:36:28;;;;;;;40.53;11.10;;;;;;;27.41;51.96;99760.63;5051315;28;20045;-72
2021/06/25 09:38:59;;;;;;;34.70;9.57;;;;;;;27.91;50.10;99769.72;5051759;28;20080;-70
2021/06/25 09:41:27;;;;;;;44.13;11.13;;;;;;;28.38;49.93;99767.09;5049001;28;20041;-73
2021/06/25 09:44:16;;;;;;;34.47;10.75;;;;;;;28.69;49.85;99763.06;5051677;28;20502;-73
2021/06/25 09:46:43;;;;;;;47.03;10.82;;;;;;;28.87;49.56;99761.97;5040437;28;20045;-72
2021/06/25 09:49:24;;;;;;;40.47;11.68;;;;;;;29.19;50.45;99770.72;5051877;28;20037;-72
2021/06/25 09:51:57;;;;;;;46.65;10.25;;;;;;;29.39;49.90;99761.50;5051623;28;20131;-72
2021/06/25 09:54:26;;;;;;;52.08;10.68;;;;;;;29.49;49.66;99761.31;5050039;28;20119;-72
2021/06/25 10:02:21;;;;;;;44.55;9.90;;;;;;;29.78;48.43;99755.16;5040053;28;20072;-72
2021/06/25 10:04:50;;;;;;;34.45;8.93;;;;;;;29.83;47.06;99751.03;5032372;28;20041;-72
2021/06/25 10:07:28;;;;;;;45.83;10.20;;;;;;;29.91;46.75;99744.03;5043638;28;20041;-72
2021/06/25 10:10:01;;;;;;;34.95;9.65;;;;;;;30.02;47.12;99750.22;5050233;28;20037;-72
2021/06/25 10:12:28;;;;;;;39.90;9.75;;;;;;;30.09;47.30;99749.28;5045336;28;20550;-73
2021/06/25 10:14:55;;;;;;;42.65;9.30;;;;;;;30.17;46.99;99757.16;5051292;28;20500;-72
2021/06/25 10:17:29;;;;;;;22.90;8.52;;;;;;;30.22;45.25;99758.69;5050048;28;20532;-72
2021/06/25 10:20:05;;;;;;;28.17;9.10;;;;;;;30.25;44.73;99757.81;5051640;28;20051;-74
2021/06/25 10:22:33;;;;;;;25.63;8.70;;;;;;;30.33;45.00;99758.44;5049284;28;20029;-72
2021/06/25 10:25:01;;;;;;;19.02;8.38;;;;;;;30.38;45.06;99757.94;5051949;28;20033;-72
2021/06/25 10:27:29;;;;;;;27.88;8.43;;;;;;;30.42;45.72;99750.19;5050913;28;20041;-73
2021/06/25 10:29:57;;;;;;;24.00;7.90;;;;;;;30.45;46.37;99751.34;5050823;28;20040;-72
2021/06/25 10:32:24;;;;;;;28.17;8.18;;;;;;;30.49;46.64;99755.66;5049904;28;20033;-73
2021/06/25 10:34:50;;;;;;;;;;;;;;;30.45;46.24;99757.75;5048170;28;20052;-73
2021/06/25 10:37:28;;;;;;;21.10;8.30;;;;;;;30.41;47.33;99759.88;5051310;28;19952;-71
2021/06/25 10:39:54;;;;;;;25.08;9.63;;;;;;;30.37;47.04;99759.19;5051045;28;20067;-72
2021/06/25 10:42:20;;;;;;;29.40;9.68;;;;;;;30.42;46.63;99750.19;5050987;28;20055;-73
2021/06/25 10:44:56;;;;;;;16.88;8.80;;;;;;;30.50;47.37;99745.97;5046077;28;20123;-74
2021/06/25 10:47:29;;;;;;;31.15;10.20;;;;;;;30.59;46.77;99739.69;5046273;28;20040;-75
2021/06/25 10:50:05;;;;;;;21.30;8.90;;;;;;;30.63;47.56;99740.44;5051106;28;20076;-73
2021/06/25 10:52:33;;;;;;;25.95;8.25;;;;;;;30.66;46.97;99729.06;5051120;28;20055;-75
2021/06/25 10:55:16;;;;;;;26.52;8.63;;;;;;;30.70;47.07;99726.16;5050801;28;20044;-72
2021/06/25 10:57:50;;;;;;;23.33;8.87;;;;;;;30.76;46.28;99712.28;5050412;28;20076;-75
2021/06/25 11:00:51;;;;;;;15.10;7.85;;;;;;;30.78;46.70;99705.00;5050477;28;20131;-75
2021/06/25 11:03:38;;;;;;;21.75;8.75;;;;;;;30.69;46.19;99706.81;5051517;28;20059;-76
2021/06/25 11:06:09;;;;;;;23.25;9.20;;;;;;;30.59;46.69;99715.09;5050894;28;20049;-77
2021/06/25 11:08:35;;;;;;;20.50;8.73;;;;;;;30.46;46.22;99708.56;5036726;28;20037;-76
2021/06/25 11:11:01;;;;;;;;;;;;;;;30.55;46.04;99714.41;5047311;28;20056;-77
2021/06/25 11:13:29;;;;;;;18.70;9.00;;;;;;;30.65;45.40;99709.72;5051028;28;19920;-77
2021/06/25 11:16:04;;;;;;;16.10;7.95;;;;;;;30.65;45.28;99701.25;5050952;28;20041;-76
2021/06/25 11:18:32;;;;;;;16.73;8.57;;;;;;;30.66;45.61;99706.47;5048023;28;20418;-74
2021/06/25 11:21:09;;;;;;;19.85;9.10;;;;;;;30.63;44.65;99704.53;5031606;28;20049;-72
2021/06/25 11:23:39;;;;;;;15.55;8.15;;;;;;;30.63;44.91;99703.75;5031441;28;20133;-73
2021/06/25 11:26:15;;;;;;;13.45;8.68;;;;;;;30.67;44.71;99698.81;5030174;28;20077;-72
2021/06/25 11:28:43;;;;;;;19.02;8.40;;;;;;;30.70;44.17;99692.28;5031408;28;20087;-72
2021/06/25 11:31:17;;;;;;;17.02;7.97;;;;;;;30.76;44.22;99689.69;5062658;28;20425;-72
2021/06/25 11:33:53;;;;;;;19.52;8.05;;;;;;;30.86;43.46;99695.13;5050493;28;20502;-72
2021/06/25 11:36:34;;;;;;;14.73;8.52;;;;;;;30.94;43.24;99684.44;5050503;28;20047;-72
2021/06/25 11:39:20;;;;;;;11.68;7.75;;;;;;;31.06;43.30;99689.38;5050560;28;20092;-72
2021/06/25 11:42:09;;;;;;;12.82;7.22;;;;;;;31.19;42.94;99697.06;5049739;28;20498;-72
2021/06/25 11:44:39;;;;;;;15.82;7.70;;;;;;;31.16;42.52;99693.13;5051275;28;20052;-72
2021/06/25 11:47:10;;;;;;;13.60;7.25;;;;;;;31.29;42.61;99693.97;5050902;28;20044;-72